Time;durP1;ratioP1;P1;durP2;ratioP2;P2;SDS_P1;SDS_P2;PMS_P1;PMS_P2;Temp;Humidity;BMP_temperature;BMP_pressure;BME280_temperature;BME280_humidity;BME280_pressure;Samples;Min_cycle;Max_cycle;Signal;HPM_P1;HPM_P2
2022/02/15 00:02:04;;;;;;;5.17;2.33;;;7.50;78.80;;;;;;5032809;28;20219;-88
2022/02/15 00:04:29;;;;;;;6.60;3.17;;;7.60;78.70;;;;;;5032705;28;20184;-89
2022/02/15 00:06:55;;;;;;;6.00;3.27;;;7.70;77.80;;;;;;5033905;28;20253;-88
2022/02/15 00:09:20;;;;;;;8.30;3.90;;;7.70;78.10;;;;;;5033467;28;20284;-88
2022/02/15 00:11:46;;;;;;;11.23;3.80;;;7.60;78.50;;;;;;5032586;28;20176;-88
2022/02/15 00:14:11;;;;;;;4.50;3.00;;;7.70;77.90;;;;;;5034059;28;20252;-88
2022/02/15 00:16:37;;;;;;;10.40;3.67;;;7.60;78.60;;;;;;5032456;28;20200;-88
2022/02/15 00:19:03;;;;;;;6.47;4.20;;;7.70;78.50;;;;;;5032857;28;20188;-88
2022/02/15 00:21:28;;;;;;;3.60;3.30;;;7.70;78.30;;;;;;5032568;28;20184;-88
2022/02/15 00:23:54;;;;;;;7.03;4.27;;;7.70;78.00;;;;;;5033965;28;20252;-88
2022/02/15 00:26:19;;;;;;;4.53;3.17;;;7.70;78.20;;;;;;5032237;28;20197;-88
2022/02/15 00:28:45;;;;;;;7.83;4.40;;;7.60;78.80;;;;;;5032225;28;20647;-88
2022/02/15 00:31:10;;;;;;;16.13;3.73;;;7.60;79.00;;;;;;5033584;28;20176;-88
2022/02/15 00:33:36;;;;;;;5.37;3.33;;;7.50;79.40;;;;;;5033566;28;20199;-88
2022/02/15 00:36:01;;;;;;;7.77;3.00;;;7.70;78.40;;;;;;5032246;28;20197;-88
2022/02/15 00:38:27;;;;;;;7.57;4.23;;;7.70;77.90;;;;;;5033382;28;20180;-88
2022/02/15 00:40:53;;;;;;;6.60;3.67;;;7.70;77.70;;;;;;5032209;28;20226;-88
2022/02/15 00:43:18;;;;;;;7.00;4.60;;;7.70;78.10;;;;;;5032297;28;20192;-88
2022/02/15 00:45:44;;;;;;;5.60;4.20;;;7.70;78.30;;;;;;5033299;28;20253;-88
2022/02/15 00:48:10;;;;;;;6.57;4.00;;;7.70;78.40;;;;;;5031998;28;20197;-88
2022/02/15 00:50:35;;;;;;;7.67;4.83;;;7.60;78.80;;;;;;5032147;28;20184;-88
2022/02/15 00:53:01;;;;;;;10.87;5.50;;;7.50;79.40;;;;;;5032041;28;20246;-88
2022/02/15 00:55:27;;;;;;;5.93;3.57;;;7.60;79.20;;;;;;5033082;28;20181;-88
2022/02/15 00:57:52;;;;;;;9.23;3.47;;;7.50;79.70;;;;;;5032017;28;20177;-88
2022/02/15 01:00:18;;;;;;;7.27;4.13;;;7.60;78.80;;;;;;5032125;28;20264;-88
2022/02/15 01:02:45;;;;;;;6.10;4.50;;;7.60;78.90;;;;;;5032820;28;20176;-88
2022/02/15 01:05:11;;;;;;;8.63;4.40;;;7.60;79.00;;;;;;5036117;28;20172;-88
2022/02/15 01:07:37;;;;;;;9.83;4.70;;;7.60;78.80;;;;;;5036044;28;20200;-88
2022/02/15 01:10:04;;;;;;;10.80;4.80;;;7.60;78.80;;;;;;5037095;28;20203;-88
2022/02/15 01:12:29;;;;;;;6.73;4.00;;;7.50;79.60;;;;;;5035987;28;20173;-88
2022/02/15 01:14:55;;;;;;;7.47;5.30;;;7.50;79.30;;;;;;5036111;28;20172;-88
2022/02/15 01:17:20;;;;;;;7.73;4.03;;;7.50;79.70;;;;;;5037193;28;20560;-88
2022/02/15 01:19:46;;;;;;;9.80;4.87;;;7.50;79.80;;;;;;5035803;28;20179;-88
2022/02/15 01:22:12;;;;;;;5.00;3.43;;;7.40;80.00;;;;;;5035816;28;20536;-88
2022/02/15 01:24:37;;;;;;;6.27;3.93;;;7.60;79.20;;;;;;5036890;28;20230;-88
2022/02/15 01:27:03;;;;;;;4.70;3.83;;;7.60;79.50;;;;;;5036757;28;20196;-88
2022/02/15 01:29:29;;;;;;;7.50;4.67;;;7.50;79.40;;;;;;5037408;28;20196;-88
2022/02/15 01:31:55;;;;;;;5.83;4.97;;;7.50;79.80;;;;;;5036769;28;20204;-88
2022/02/15 01:34:20;;;;;;;7.90;5.07;;;7.50;79.60;;;;;;5035622;28;20259;-88
2022/02/15 01:36:47;;;;;;;6.67;4.20;;;7.60;78.90;;;;;;5035777;28;20634;-88
2022/02/15 01:39:13;;;;;;;8.50;4.57;;;7.60;79.30;;;;;;5035563;28;20169;-88
2022/02/15 01:41:38;;;;;;;6.93;3.87;;;7.50;79.80;;;;;;5035558;28;20263;-88
2022/02/15 01:44:04;;;;;;;8.03;4.50;;;7.40;80.80;;;;;;5036645;28;20188;-88
2022/02/15 01:46:30;;;;;;;5.60;4.20;;;7.30;81.80;;;;;;5035349;28;20196;-88
2022/02/15 01:48:56;;;;;;;7.87;4.47;;;7.10;83.30;;;;;;5035661;28;20674;-88
2022/02/15 01:51:22;;;;;;;8.70;5.30;;;6.90;84.80;;;;;;5035490;28;20179;-88
2022/02/15 01:53:48;;;;;;;5.97;5.03;;;6.90;84.50;;;;;;5036471;28;20641;-88
2022/02/15 01:56:15;;;;;;;10.97;4.80;;;6.90;84.80;;;;;;5036110;28;20258;-88
2022/02/15 01:58:40;;;;;;;7.53;3.93;;;6.90;84.90;;;;;;5035068;28;20208;-88
2022/02/15 02:01:06;;;;;;;7.10;3.80;;;6.80;84.80;;;;;;5036231;28;20254;-88
2022/02/15 02:03:33;;;;;;;4.37;2.83;;;6.80;84.50;;;;;;5035319;28;20187;-88
2022/02/15 02:05:58;;;;;;;3.63;3.27;;;6.80;84.30;;;;;;5036219;28;20253;-88
2022/02/15 02:08:27;;;;;;;6.27;2.50;;;6.80;83.40;;;;;;5035142;28;20196;-88
2022/02/15 02:10:54;;;;;;;3.17;2.13;;;6.80;83.60;;;;;;5036108;28;20164;-88
2022/02/15 02:13:20;;;;;;;3.93;2.47;;;6.80;83.40;;;;;;5034855;28;20171;-88
2022/02/15 02:15:47;;;;;;;4.57;2.50;;;6.80;83.50;;;;;;5034736;28;20615;-88
2022/02/15 02:18:14;;;;;;;2.43;1.77;;;6.70;83.50;;;;;;5034803;28;20181;-88
2022/02/15 02:20:41;;;;;;;3.30;2.23;;;6.80;83.20;;;;;;5035951;28;20179;-88
2022/02/15 02:23:11;;;;;;;2.60;1.87;;;6.70;83.00;;;;;;5034687;28;20637;-88
2022/02/15 02:25:37;;;;;;;1.70;1.60;;;6.70;83.10;;;;;;5034553;28;20185;-88
2022/02/15 02:28:02;;;;;;;2.53;1.60;;;6.70;83.10;;;;;;5034843;28;20665;-88
2022/02/15 02:30:28;;;;;;;2.83;1.83;;;6.60;83.00;;;;;;5034627;28;20258;-88
2022/02/15 02:32:54;;;;;;;2.93;2.07;;;6.60;82.90;;;;;;5034391;28;20274;-88
2022/02/15 02:35:20;;;;;;;2.73;2.13;;;6.60;83.20;;;;;;5034469;28;20175;-88
2022/02/15 02:37:46;;;;;;;2.40;1.70;;;6.60;83.00;;;;;;5034622;28;20219;-88
2022/02/15 02:40:12;;;;;;;3.53;1.70;;;6.60;83.40;;;;;;5035608;28;20173;-88
2022/02/15 02:42:39;;;;;;;7.63;2.00;;;6.50;83.80;;;;;;5034450;28;20210;-87
2022/02/15 02:45:10;;;;;;;2.70;1.67;;;6.60;83.40;;;;;;5034366;28;20177;-88
2022/02/15 02:47:37;;;;;;;4.53;2.37;;;6.70;83.40;;;;;;5034177;28;20253;-88
2022/02/15 02:50:04;;;;;;;3.77;2.20;;;6.70;83.50;;;;;;5034367;28;20199;-88
2022/02/15 02:52:29;;;;;;;2.60;2.20;;;6.60;83.50;;;;;;5034090;28;20263;-88
2022/02/15 02:54:55;;;;;;;3.67;2.00;;;6.70;83.20;;;;;;5034140;28;20322;-88
2022/02/15 02:57:20;;;;;;;4.37;2.00;;;6.70;83.40;;;;;;5033815;28;20223;-88
2022/02/15 02:59:46;;;;;;;4.07;2.30;;;6.70;83.30;;;;;;5034050;28;20183;-88
2022/02/15 03:02:12;;;;;;;6.70;2.27;;;6.70;83.30;;;;;;5035137;28;20716;-88
2022/02/15 03:04:38;;;;;;;4.67;1.77;;;6.70;83.40;;;;;;5033951;28;20187;-88
2022/02/15 03:07:05;;;;;;;3.63;2.53;;;6.70;83.40;;;;;;5033858;28;20192;-88
2022/02/15 03:09:31;;;;;;;2.17;1.97;;;6.70;83.40;;;;;;5033914;28;20203;-88
2022/02/15 03:11:57;;;;;;;2.70;1.97;;;6.70;83.40;;;;;;5033837;28;20183;-88
2022/02/15 03:14:22;;;;;;;3.50;2.13;;;6.80;83.40;;;;;;5034954;28;20172;-88
2022/02/15 03:16:48;;;;;;;3.27;1.70;;;6.80;83.40;;;;;;5034825;28;20188;-88
2022/02/15 03:19:14;;;;;;;2.13;1.93;;;6.70;84.10;;;;;;5033880;28;20272;-88
2022/02/15 03:21:40;;;;;;;3.20;2.27;;;6.70;84.60;;;;;;5033841;28;20581;-88
2022/02/15 03:24:06;;;;;;;3.97;2.23;;;6.60;85.10;;;;;;5034966;28;20172;-88
2022/02/15 03:26:32;;;;;;;3.83;2.50;;;6.50;85.70;;;;;;5034808;28;20199;-88
2022/02/15 03:28:57;;;;;;;3.47;2.20;;;6.50;86.30;;;;;;5033344;28;20223;-88
2022/02/15 03:31:23;;;;;;;4.63;2.97;;;6.40;86.80;;;;;;5034910;28;20179;-88
2022/02/15 03:33:49;;;;;;;3.90;2.60;;;6.30;87.40;;;;;;5034615;28;20313;-88
2022/02/15 03:36:15;;;;;;;3.23;2.23;;;6.30;88.00;;;;;;5033413;28;20202;-88
2022/02/15 03:38:41;;;;;;;2.70;2.50;;;6.30;88.20;;;;;;5034528;28;20255;-88
2022/02/15 03:43:51;;;;;;;6.53;3.87;;;6.30;88.30;;;;;;5034497;28;20171;-88
2022/02/15 03:46:17;;;;;;;4.37;3.00;;;6.30;88.40;;;;;;5034289;28;20207;-88
2022/02/15 03:48:42;;;;;;;3.00;2.10;;;6.30;88.50;;;;;;5033008;28;20255;-88
2022/02/15 03:51:08;;;;;;;10.07;3.13;;;6.30;88.70;;;;;;5034150;28;20230;-88
2022/02/15 03:53:34;;;;;;;5.73;3.07;;;6.20;89.10;;;;;;5034208;28;20175;-88
2022/02/15 03:56:00;;;;;;;6.93;2.87;;;6.20;89.50;;;;;;5033963;28;20256;-88
2022/02/15 03:58:25;;;;;;;5.57;3.00;;;6.20;89.70;;;;;;5033092;28;20293;-88
2022/02/15 04:00:51;;;;;;;3.00;2.70;;;6.10;90.00;;;;;;5034021;28;20183;-88
2022/02/15 04:03:17;;;;;;;5.93;2.73;;;6.10;90.20;;;;;;5032790;28;20195;-88
2022/02/15 04:05:42;;;;;;;2.47;2.27;;;6.00;90.20;;;;;;5032717;28;20203;-88
2022/02/15 04:08:08;;;;;;;3.37;3.07;;;6.10;90.30;;;;;;5032677;28;20226;-88
2022/02/15 04:10:33;;;;;;;7.33;3.10;;;6.10;90.50;;;;;;5033893;28;20230;-88
2022/02/15 04:12:59;;;;;;;4.17;3.60;;;6.00;90.70;;;;;;5032645;28;20273;-88
2022/02/15 04:15:24;;;;;;;6.13;3.30;;;6.00;91.00;;;;;;5033858;28;20187;-88
2022/02/15 04:17:50;;;;;;;6.27;3.40;;;6.00;91.10;;;;;;5033861;28;20182;-88
2022/02/15 04:20:15;;;;;;;5.67;3.80;;;6.00;91.30;;;;;;5032524;28;20199;-88
2022/02/15 04:22:42;;;;;;;7.00;4.13;;;6.00;91.50;;;;;;5033936;28;20633;-88
2022/02/15 04:25:09;;;;;;;4.53;3.40;;;5.90;91.70;;;;;;5032370;28;20667;-88
2022/02/15 04:27:35;;;;;;;14.67;4.63;;;5.90;92.00;;;;;;5033515;28;20200;-88
2022/02/15 04:30:02;;;;;;;6.07;3.43;;;5.90;92.30;;;;;;5032299;28;20707;-88
2022/02/15 04:32:28;;;;;;;5.20;4.10;;;5.90;92.40;;;;;;5032426;28;20187;-88
2022/02/15 04:34:53;;;;;;;5.67;3.90;;;5.90;92.50;;;;;;5032323;28;20174;-88
2022/02/15 04:37:19;;;;;;;9.97;5.20;;;5.80;92.60;;;;;;5032162;28;20673;-88
2022/02/15 04:39:44;;;;;;;9.13;3.50;;;5.80;92.70;;;;;;5033310;28;20178;-89
2022/02/15 04:42:10;;;;;;;6.60;5.10;;;5.80;92.90;;;;;;5032476;28;20178;-89
2022/02/15 04:44:36;;;;;;;11.00;4.67;;;5.80;93.00;;;;;;5033922;28;20607;-89
2022/02/15 04:47:03;;;;;;;7.67;4.57;;;5.80;93.00;;;;;;5032323;28;20253;-89
2022/02/15 04:49:28;;;;;;;8.70;4.80;;;5.90;93.20;;;;;;5033248;28;20206;-89
2022/02/15 04:51:55;;;;;;;10.70;5.47;;;5.80;93.20;;;;;;5033596;28;20180;-89
2022/02/15 04:54:22;;;;;;;8.73;4.43;;;5.80;93.30;;;;;;5032132;28;20178;-89
2022/02/15 04:56:48;;;;;;;6.40;5.00;;;5.80;93.40;;;;;;5031996;28;20587;-89
2022/02/15 04:59:14;;;;;;;15.53;5.30;;;5.80;93.40;;;;;;5032421;28;20186;-89
2022/02/15 05:01:39;;;;;;;11.37;5.63;;;5.80;93.50;;;;;;5033374;28;20182;-89
2022/02/15 05:04:05;;;;;;;9.37;4.37;;;5.80;93.50;;;;;;5032035;28;20201;-89
2022/02/15 05:06:30;;;;;;;15.73;4.77;;;5.80;93.40;;;;;;5032054;28;20205;-89
2022/02/15 05:08:56;;;;;;;8.10;5.57;;;5.80;93.40;;;;;;5032223;28;20710;-88
2022/02/15 05:11:21;;;;;;;15.13;6.70;;;5.80;93.20;;;;;;5033074;28;20178;-89
2022/02/15 05:13:47;;;;;;;15.00;5.20;;;5.80;93.00;;;;;;5033373;28;20175;-89
2022/02/15 05:16:12;;;;;;;7.43;4.60;;;5.80;92.80;;;;;;5033243;28;20217;-88
2022/02/15 05:18:38;;;;;;;16.60;5.20;;;5.90;92.60;;;;;;5032681;28;20190;-89
2022/02/15 05:21:04;;;;;;;9.90;4.87;;;5.90;92.40;;;;;;5033093;28;20176;-89
2022/02/15 05:23:30;;;;;;;9.07;4.40;;;6.00;92.30;;;;;;5031822;28;20186;-89
2022/02/15 05:25:56;;;;;;;11.97;5.40;;;5.90;92.00;;;;;;5031683;28;20205;-89
2022/02/15 05:28:22;;;;;;;9.10;4.03;;;6.00;91.90;;;;;;5031701;28;20199;-88
2022/02/15 05:30:48;;;;;;;9.37;4.43;;;6.00;91.80;;;;;;5031763;28;20322;-88
2022/02/15 05:33:13;;;;;;;10.57;4.67;;;6.00;91.80;;;;;;5033012;28;20207;-89
2022/02/15 05:35:39;;;;;;;10.13;5.10;;;5.90;91.80;;;;;;5033070;28;20202;-89
2022/02/15 05:38:05;;;;;;;12.67;5.07;;;6.00;91.80;;;;;;5032927;28;20254;-89
2022/02/15 05:40:31;;;;;;;12.03;6.27;;;6.00;91.70;;;;;;5032919;28;20672;-89
2022/02/15 05:42:57;;;;;;;10.23;5.70;;;6.00;91.70;;;;;;5033259;28;20172;-89
2022/02/15 05:45:23;;;;;;;11.87;5.50;;;6.00;91.60;;;;;;5032068;28;20308;-92
2022/02/15 05:47:49;;;;;;;14.67;5.43;;;6.00;91.50;;;;;;5032205;28;20230;-93
2022/02/15 05:52:58;;;;;;;6.50;4.20;;;6.00;91.50;;;;;;5037815;28;20582;-89
2022/02/15 05:55:24;;;;;;;11.20;4.43;;;6.00;91.40;;;;;;5035235;28;20181;-89
2022/02/15 05:57:50;;;;;;;9.90;4.63;;;6.00;91.40;;;;;;5082548;23;20235;-91
2022/02/15 06:00:17;;;;;;;9.17;4.37;;;6.00;91.30;;;;;;5036603;28;20190;-89
2022/02/15 06:02:43;;;;;;;10.00;4.23;;;6.00;91.20;;;;;;5035205;28;20183;-89
2022/02/15 06:05:09;;;;;;;8.40;4.77;;;6.00;91.00;;;;;;5035171;28;20179;-90
2022/02/15 06:07:35;;;;;;;9.43;4.90;;;6.00;91.00;;;;;;5035217;28;20703;-89
2022/02/15 06:10:01;;;;;;;10.97;3.97;;;6.00;91.00;;;;;;5035091;28;20298;-90
2022/02/15 06:12:26;;;;;;;16.63;4.77;;;6.00;90.90;;;;;;5035252;28;20540;-88
2022/02/15 06:14:52;;;;;;;11.80;4.70;;;6.00;91.00;;;;;;5034928;28;20595;-90
2022/02/15 06:17:17;;;;;;;7.73;4.23;;;5.90;91.10;;;;;;5037084;28;20198;-91
2022/02/15 06:19:43;;;;;;;20.83;7.07;;;5.90;91.10;;;;;;5036557;28;20230;-90
2022/02/15 06:22:08;;;;;;;12.43;4.93;;;5.90;91.10;;;;;;5035596;28;20195;-90
2022/02/15 06:24:34;;;;;;;16.63;8.00;;;6.00;91.10;;;;;;5036774;28;20184;-89
2022/02/15 06:27:02;;;;;;;15.20;4.97;;;5.90;91.20;;;;;;5037668;28;20256;-90
2022/02/15 06:29:36;;;;;;;7.03;4.47;;;5.90;91.20;;;;;;5037604;28;20235;-89
2022/02/15 06:32:03;;;;;;;11.27;5.10;;;5.90;91.40;;;;;;5035397;28;20595;-90
2022/02/15 06:34:28;;;;;;;11.10;5.30;;;5.90;91.30;;;;;;5034788;28;20179;-90
2022/02/15 06:36:54;;;;;;;11.03;5.60;;;5.90;91.10;;;;;;5034758;28;20267;-90
2022/02/15 06:39:20;;;;;;;15.33;5.90;;;5.90;91.20;;;;;;5034679;28;20269;-90
2022/02/15 06:42:55;;;;;;;;;;;;;;;;;;;;;
2022/02/15 08:05:49;;;;;;;8.77;5.80;;;6.10;91.60;;;;;;5030426;28;20223;-93
2022/02/15 08:08:17;;;;;;;8.13;5.00;;;6.10;91.80;;;;;;5028256;28;20207;-92
2022/02/15 08:10:44;;;;;;;8.30;4.53;;;6.00;91.80;;;;;;5037244;28;20179;-91
2022/02/15 08:13:21;;;;;;;10.10;3.67;;;6.00;91.80;;;;;;5036487;28;20175;-92
2022/02/15 08:15:49;;;;;;;6.63;3.53;;;6.00;91.60;;;;;;5032772;28;20180;-94
2022/02/15 08:18:15;;;;;;;7.70;3.67;;;5.90;91.40;;;;;;5024516;28;20187;-93
2022/02/15 08:20:41;;;;;;;7.43;3.47;;;5.90;91.50;;;;;;5023019;28;20206;-91
2022/02/15 08:23:10;;;;;;;4.83;3.40;;;5.90;91.60;;;;;;5032984;28;20175;-92
2022/02/15 08:25:36;;;;;;;7.77;4.53;;;5.90;91.70;;;;;;5031464;28;20187;-92
2022/02/15 08:28:01;;;;;;;14.47;5.87;;;5.90;91.80;;;;;;5035429;28;20204;-90
2022/02/15 08:30:27;;;;;;;10.90;5.80;;;5.90;92.00;;;;;;5038750;28;20191;-91
2022/02/15 08:32:56;;;;;;;11.17;5.63;;;6.00;92.20;;;;;;5036726;28;20226;-91
2022/02/15 08:35:21;;;;;;;8.90;6.77;;;5.90;92.40;;;;;;5036135;28;20183;-91
2022/02/15 08:37:47;;;;;;;13.50;5.67;;;5.90;92.50;;;;;;5037381;28;20262;-91
2022/02/15 08:40:13;;;;;;;13.17;8.03;;;5.90;92.70;;;;;;5038910;28;20187;-91
2022/02/15 08:42:41;;;;;;;12.37;7.03;;;6.00;92.80;;;;;;5040359;28;20191;-91
2022/02/15 08:45:09;;;;;;;18.53;8.33;;;6.00;92.80;;;;;;5036148;28;20183;-91
2022/02/15 08:47:35;;;;;;;10.47;7.50;;;6.00;92.90;;;;;;5031312;28;20307;-91
2022/02/15 08:50:00;;;;;;;9.23;6.20;;;6.00;93.00;;;;;;5024224;28;20208;-91
2022/02/15 08:52:29;;;;;;;13.30;6.77;;;5.90;93.20;;;;;;5023053;28;20266;-93
2022/02/15 08:54:55;;;;;;;7.63;4.70;;;5.80;93.10;;;;;;5021495;28;20210;-93
2022/02/15 08:57:22;;;;;;;9.43;5.13;;;5.80;92.90;;;;;;5026913;28;20194;-92
2022/02/15 08:59:53;;;;;;;4.40;3.23;;;5.80;92.60;;;;;;5032612;28;20182;-94
2022/02/15 09:02:21;;;;;;;4.20;2.33;;;5.70;91.90;;;;;;5031091;28;20244;-94
2022/02/15 09:04:47;;;;;;;3.20;2.07;;;5.70;91.60;;;;;;5027416;28;20196;-91
2022/02/15 09:07:13;;;;;;;4.13;2.40;;;5.70;90.90;;;;;;5015528;28;20281;-91
2022/02/15 09:09:39;;;;;;;6.07;2.90;;;5.70;90.90;;;;;;5015280;28;20209;-91
2022/02/15 09:12:05;;;;;;;4.50;2.73;;;5.70;91.20;;;;;;5018043;28;20181;-90
2022/02/15 09:14:31;;;;;;;6.73;2.80;;;5.70;91.40;;;;;;5031574;28;20175;-90
2022/02/15 09:17:00;;;;;;;5.00;3.07;;;5.70;91.50;;;;;;5037905;28;20266;-92
2022/02/15 09:19:29;;;;;;;10.07;3.40;;;5.70;91.50;;;;;;5038536;28;20164;-92
2022/02/15 09:21:56;;;;;;;3.47;2.83;;;5.70;91.50;;;;;;5039416;28;20155;-92
2022/02/15 09:24:28;;;;;;;3.93;3.03;;;5.80;91.60;;;;;;5041386;28;20190;-93
2022/02/15 09:27:26;;;;;;;4.47;3.00;;;5.80;91.70;;;;;;5042381;28;20199;-94
2022/02/15 09:29:51;;;;;;;8.20;3.53;;;5.80;91.80;;;;;;5060372;28;20218;-92
2022/02/15 09:32:17;;;;;;;3.50;2.53;;;5.70;91.80;;;;;;5038260;28;20199;-93
2022/02/15 09:34:43;;;;;;;3.17;2.50;;;5.60;91.70;;;;;;5038454;28;20219;-92
2022/02/15 09:37:08;;;;;;;5.67;2.27;;;5.70;91.70;;;;;;5043367;28;20208;-91
2022/02/15 09:39:34;;;;;;;3.40;2.07;;;5.70;91.50;;;;;;5041310;28;20190;-92
2022/02/15 09:41:59;;;;;;;3.60;2.40;;;5.70;91.60;;;;;;5041669;28;20186;-92
2022/02/15 09:44:25;;;;;;;7.80;2.60;;;5.60;91.70;;;;;;5043656;28;20182;-95
2022/02/15 09:46:52;;;;;;;4.73;2.57;;;5.60;91.80;;;;;;5043651;28;20204;-95
2022/02/15 09:52:03;;;;;;;5.37;2.30;;;5.60;92.00;;;;;;5045462;28;20584;-93
2022/02/15 09:54:30;;;;;;;6.60;2.50;;;5.70;91.90;;;;;;5028224;28;20217;-91
2022/02/15 09:56:56;;;;;;;3.67;2.30;;;5.70;91.90;;;;;;5027104;28;20676;-91
2022/02/15 09:59:22;;;;;;;7.60;2.90;;;5.70;91.80;;;;;;5025840;28;20189;-91
2022/02/15 10:01:47;;;;;;;6.87;2.67;;;5.80;91.70;;;;;;5044829;28;20171;-91
2022/02/15 10:04:13;;;;;;;5.53;3.03;;;5.80;91.70;;;;;;5045931;28;20250;-92
2022/02/15 10:06:40;;;;;;;8.13;3.50;;;5.90;91.60;;;;;;5027597;28;20219;-91
2022/02/15 10:09:10;;;;;;;8.70;4.20;;;6.00;91.60;;;;;;5027616;28;20239;-92
2022/02/15 10:11:41;;;;;;;8.17;4.63;;;6.10;91.60;;;;;;5029428;28;20237;-92
2022/02/15 10:14:10;;;;;;;7.10;4.57;;;6.10;91.50;;;;;;5027024;28;20205;-92
2022/02/15 10:16:50;;;;;;;9.43;5.20;;;6.20;91.40;;;;;;5029010;28;20175;-92
2022/02/15 10:19:28;;;;;;;12.70;5.67;;;6.20;91.40;;;;;;5029450;28;20187;-92
2022/02/15 10:21:58;;;;;;;7.97;5.93;;;6.30;91.20;;;;;;5028801;28;20271;-92
2022/02/15 10:24:26;;;;;;;11.93;6.60;;;6.60;91.20;;;;;;5027204;28;20184;-91
2022/02/15 10:26:57;;;;;;;9.73;6.97;;;6.80;90.90;;;;;;5023025;28;20219;-91
2022/02/15 10:29:25;;;;;;;12.03;8.13;;;7.10;90.50;;;;;;5025618;28;20295;-91
2022/02/15 10:32:04;;;;;;;9.83;6.87;;;7.50;90.50;;;;;;5031154;28;20176;-92
2022/02/15 10:34:30;;;;;;;12.13;6.27;;;7.60;89.70;;;;;;5024322;28;20266;-91
2022/02/15 10:37:04;;;;;;;7.97;5.67;;;7.50;87.90;;;;;;5026798;28;20193;-93
2022/02/15 10:39:46;;;;;;;12.50;5.80;;;7.40;87.10;;;;;;5026024;28;20181;-92
2022/02/15 10:42:18;;;;;;;16.03;7.77;;;7.40;86.30;;;;;;5035175;28;20173;-92
2022/02/15 10:45:05;;;;;;;10.87;7.37;;;7.50;86.20;;;;;;5190909;23;20229;-92
2022/02/15 10:47:40;;;;;;;10.33;7.00;;;7.50;85.90;;;;;;5019206;28;20241;-92
2022/02/15 10:50:11;;;;;;;10.17;6.87;;;7.50;86.00;;;;;;5000125;28;20585;-91
2022/02/15 10:52:38;;;;;;;6.73;5.57;;;7.70;84.90;;;;;;4998400;28;20165;-90
2022/02/15 10:55:05;;;;;;;7.40;5.47;;;7.80;84.20;;;;;;4998344;28;20170;-91
2022/02/15 10:57:31;;;;;;;10.70;5.90;;;7.90;83.60;;;;;;4998656;28;20202;-91
2022/02/15 10:59:58;;;;;;;5.73;4.60;;;8.00;83.70;;;;;;5001641;28;20557;-91
2022/02/15 11:02:26;;;;;;;11.07;5.33;;;7.80;81.90;;;;;;5001118;28;20643;-91
2022/02/15 11:04:56;;;;;;;7.33;4.23;;;7.50;83.00;;;;;;5015503;28;20197;-90
2022/02/15 11:07:26;;;;;;;9.43;5.13;;;7.40;82.10;;;;;;4999323;28;20308;-91
2022/02/15 11:10:13;;;;;;;11.17;5.10;;;7.30;82.70;;;;;;4998303;28;20198;-91
2022/02/15 11:12:59;;;;;;;9.27;5.50;;;7.30;82.90;;;;;;5016606;28;20260;-91
2022/02/15 11:15:33;;;;;;;10.57;6.10;;;7.20;82.70;;;;;;5018359;28;20157;-91
2022/02/15 11:18:06;;;;;;;13.83;7.40;;;7.30;83.50;;;;;;5000069;28;20197;-92
2022/02/15 11:20:56;;;;;;;11.83;7.50;;;7.30;83.80;;;;;;5017518;28;20169;-91
2022/02/15 11:23:24;;;;;;;18.67;7.90;;;7.30;84.50;;;;;;5001061;28;20264;-92
2022/02/15 11:26:02;;;;;;;11.80;8.47;;;7.30;85.00;;;;;;5001042;28;20181;-92
2022/02/15 11:28:27;;;;;;;13.00;8.50;;;7.30;84.40;;;;;;5000005;28;20205;-91
2022/02/15 11:30:56;;;;;;;9.60;8.10;;;7.40;84.90;;;;;;4998970;28;20648;-92
2022/02/15 11:33:29;;;;;;;9.60;6.60;;;7.40;84.50;;;;;;4999965;28;20237;-91
2022/02/15 11:36:13;;;;;;;8.73;6.03;;;7.60;84.20;;;;;;5000202;28;20196;-92
2022/02/15 11:38:49;;;;;;;9.10;6.37;;;7.60;83.50;;;;;;4998400;28;20197;-91
2022/02/15 11:41:15;;;;;;;10.67;7.00;;;7.60;83.20;;;;;;4997910;28;20635;-91
2022/02/15 11:43:40;;;;;;;9.97;7.23;;;7.60;83.50;;;;;;4997692;28;20177;-91
2022/02/15 11:46:06;;;;;;;10.67;7.07;;;7.60;83.00;;;;;;4997591;28;20199;-91
2022/02/15 11:48:42;;;;;;;15.90;7.50;;;7.80;83.70;;;;;;4996733;28;20576;-91
2022/02/15 11:51:26;;;;;;;11.43;7.43;;;8.00;83.00;;;;;;4999977;28;20169;-92
2022/02/15 11:53:59;;;;;;;10.80;6.23;;;8.00;82.20;;;;;;5021892;28;20158;-92
2022/02/15 11:56:25;;;;;;;13.80;5.93;;;7.80;81.90;;;;;;5007326;28;20169;-92
2022/02/15 11:58:52;;;;;;;12.97;7.03;;;7.70;82.40;;;;;;5002953;28;20196;-90
2022/02/15 12:01:26;;;;;;;8.60;7.40;;;7.70;81.90;;;;;;5000546;28;20651;-91
2022/02/15 12:03:53;;;;;;;15.40;7.73;;;7.80;82.50;;;;;;4999578;28;20181;-91
2022/02/15 12:06:20;;;;;;;9.67;7.43;;;7.80;82.20;;;;;;5000831;28;20181;-91
2022/02/15 12:08:54;;;;;;;9.60;7.37;;;7.80;82.20;;;;;;4999922;28;20209;-91
2022/02/15 12:11:36;;;;;;;8.83;6.13;;;7.80;82.40;;;;;;4999606;28;20177;-90
2022/02/15 12:14:22;;;;;;;9.53;7.47;;;7.70;81.50;;;;;;4998231;28;20162;-90
2022/02/15 12:16:59;;;;;;;8.33;6.73;;;8.10;81.40;;;;;;4996519;28;20284;-90
2022/02/15 12:19:33;;;;;;;11.17;6.77;;;7.90;80.90;;;;;;4996624;28;20200;-90
2022/02/15 12:22:05;;;;;;;9.13;6.80;;;7.80;80.40;;;;;;4996488;28;20177;-90
2022/02/15 12:24:32;;;;;;;10.07;6.30;;;7.70;80.70;;;;;;4996977;28;20283;-91
2022/02/15 12:27:00;;;;;;;12.27;7.77;;;7.60;81.00;;;;;;4997883;28;20193;-90
2022/02/15 12:29:29;;;;;;;11.00;8.63;;;7.70;81.40;;;;;;4997091;28;20201;-91
2022/02/15 12:32:03;;;;;;;9.40;7.00;;;7.70;81.50;;;;;;4997883;28;20173;-92
2022/02/15 12:34:30;;;;;;;12.93;8.67;;;7.80;81.70;;;;;;5001506;28;20181;-90
2022/02/15 12:36:56;;;;;;;11.80;8.97;;;7.80;82.10;;;;;;5000850;28;20197;-92
2022/02/15 12:39:34;;;;;;;11.70;8.50;;;8.00;82.70;;;;;;5001287;28;20200;-92
2022/02/15 12:41:59;;;;;;;13.80;8.67;;;8.00;82.70;;;;;;4999490;28;20192;-90
2022/02/15 12:44:25;;;;;;;15.50;9.67;;;8.00;82.50;;;;;;5002045;28;20181;-92
2022/02/15 12:46:51;;;;;;;11.33;10.10;;;8.00;83.30;;;;;;5000130;28;20204;-91
2022/02/15 12:49:16;;;;;;;18.27;10.80;;;7.90;83.00;;;;;;4996921;28;20197;-91
2022/02/15 12:51:45;;;;;;;15.70;10.27;;;7.90;83.00;;;;;;4998640;28;20174;-92
2022/02/15 12:54:12;;;;;;;18.50;6.90;;;7.90;83.00;;;;;;5001395;28;20584;-92
2022/02/15 12:56:39;;;;;;;9.57;8.57;;;7.90;82.20;;;;;;4998630;28;20176;-91
2022/02/15 12:59:12;;;;;;;13.27;7.83;;;7.90;82.30;;;;;;4998716;28;20173;-92
2022/02/15 13:01:38;;;;;;;19.17;9.00;;;7.90;81.60;;;;;;4998721;28;20166;-91
2022/02/15 13:04:09;;;;;;;15.80;11.83;;;7.90;80.60;;;;;;4999708;28;20612;-92
2022/02/15 13:06:39;;;;;;;14.20;10.83;;;7.90;80.70;;;;;;5000713;28;20248;-91
2022/02/15 13:09:10;;;;;;;12.90;8.77;;;8.00;80.90;;;;;;4999213;28;20683;-92
2022/02/15 13:11:36;;;;;;;12.03;9.17;;;8.10;81.10;;;;;;5000222;28;20174;-92
2022/02/15 13:14:01;;;;;;;15.47;10.33;;;8.30;81.30;;;;;;4998984;28;20664;-92
2022/02/15 13:16:40;;;;;;;13.43;11.17;;;8.80;81.20;;;;;;4998993;28;20181;-92
2022/02/15 13:19:06;;;;;;;12.03;9.00;;;9.10;80.10;;;;;;4997875;28;20169;-91
2022/02/15 13:21:34;;;;;;;16.17;12.20;;;9.00;78.60;;;;;;4998535;28;20174;-91
2022/02/15 13:24:06;;;;;;;10.47;9.33;;;9.10;79.50;;;;;;4997493;28;20272;-92
2022/02/15 13:26:42;;;;;;;15.37;11.20;;;8.80;78.60;;;;;;4998016;28;20209;-92
2022/02/15 13:29:21;;;;;;;14.43;11.43;;;8.60;78.50;;;;;;4997726;28;20201;-91
2022/02/15 13:31:51;;;;;;;11.40;10.00;;;8.50;80.40;;;;;;4997947;28;20168;-91
2022/02/15 13:34:38;;;;;;;16.53;12.80;;;8.60;79.30;;;;;;4997816;28;20531;-91
2022/02/15 13:37:09;;;;;;;13.23;9.90;;;8.50;78.60;;;;;;5014626;28;20193;-92
2022/02/15 13:39:36;;;;;;;19.73;13.90;;;8.80;77.50;;;;;;4997607;28;20208;-92
2022/02/15 13:42:06;;;;;;;13.67;6.90;;;9.00;78.70;;;;;;4998971;28;20253;-91
2022/02/15 13:44:32;;;;;;;14.83;10.90;;;8.70;78.30;;;;;;4999041;28;20190;-91
2022/02/15 13:46:58;;;;;;;19.27;11.77;;;8.50;78.50;;;;;;4999748;28;20220;-91
2022/02/15 13:49:23;;;;;;;14.53;11.77;;;8.40;78.00;;;;;;4997348;28;20194;-91
2022/02/15 13:51:49;;;;;;;14.93;11.30;;;8.30;78.90;;;;;;4996975;28;20177;-90
2022/02/15 13:54:15;;;;;;;13.47;9.70;;;8.20;78.60;;;;;;4997787;28;20170;-91
2022/02/15 13:56:42;;;;;;;13.17;10.73;;;8.20;78.40;;;;;;4995978;28;20285;-91
2022/02/15 13:59:09;;;;;;;17.20;13.30;;;8.20;78.10;;;;;;4996340;28;20320;-90
2022/02/15 14:01:36;;;;;;;16.23;13.23;;;8.20;78.40;;;;;;4996880;28;20738;-91
2022/02/15 14:04:06;;;;;;;13.93;10.90;;;8.10;78.80;;;;;;4995918;28;20185;-91
2022/02/15 14:06:35;;;;;;;13.00;9.97;;;8.10;78.10;;;;;;4998085;28;20651;-90
2022/02/15 14:09:00;;;;;;;18.10;13.63;;;8.00;79.00;;;;;;4996058;28;20263;-91
2022/02/15 14:11:26;;;;;;;14.50;11.60;;;8.00;79.30;;;;;;5001753;28;20173;-91
2022/02/15 14:13:52;;;;;;;20.97;14.33;;;7.90;79.40;;;;;;5001840;28;20546;-91
2022/02/15 14:16:19;;;;;;;21.93;14.57;;;8.00;79.00;;;;;;5001632;28;20253;-91
2022/02/15 14:18:45;;;;;;;23.10;15.07;;;8.00;79.00;;;;;;5002941;28;20235;-92
2022/02/15 14:21:13;;;;;;;15.03;12.40;;;8.00;79.00;;;;;;5005705;28;20184;-92
2022/02/15 14:23:39;;;;;;;20.43;16.03;;;8.00;79.70;;;;;;5000577;28;20185;-90
2022/02/15 14:26:06;;;;;;;23.77;15.37;;;8.00;80.00;;;;;;5015185;28;20181;-90